Time;durP1;ratioP1;P1;durP2;ratioP2;P2;SDS_P1;SDS_P2;PMS_P1;PMS_P2;Temp;Humidity;BMP_temperature;BMP_pressure;BME280_temperature;BME280_humidity;BME280_pressure;Samples;Min_cycle;Max_cycle;Signal;HPM_P1;HPM_P2
2022/08/03 00:01:45;;;;;;;1057.43;977.23;;;24.40;99.90;;;;;;5100136;28;20515;-89
2022/08/03 00:04:12;;;;;;;1044.33;964.87;;;24.40;99.90;;;;;;5105706;28;20469;-89
2022/08/03 00:06:39;;;;;;;1053.03;973.23;;;24.40;99.90;;;;;;5101396;28;20479;-88
2022/08/03 00:09:06;;;;;;;1060.13;979.57;;;24.40;99.90;;;;;;5111142;28;20466;-88
2022/08/03 00:11:33;;;;;;;1063.77;982.70;;;24.40;99.90;;;;;;5099191;28;20459;-90
2022/08/03 00:13:59;;;;;;;1048.80;968.30;;;24.30;99.90;;;;;;5097780;28;20477;-88
2022/08/03 00:16:28;;;;;;;1056.17;975.63;;;24.30;99.90;;;;;;5094496;28;20824;-87
2022/08/03 00:18:54;;;;;;;1056.37;976.17;;;24.30;99.90;;;;;;5110738;28;20450;-88
2022/08/03 00:21:21;;;;;;;1058.67;978.40;;;24.30;99.90;;;;;;5109643;28;20477;-87
2022/08/03 00:23:48;;;;;;;1046.37;966.37;;;24.30;99.90;;;;;;5105199;28;20446;-88
2022/08/03 00:26:15;;;;;;;1062.63;982.53;;;24.30;99.90;;;;;;5105857;28;20479;-88
2022/08/03 00:28:41;;;;;;;1053.57;972.87;;;24.30;99.90;;;;;;5112591;28;20464;-87
2022/08/03 00:31:08;;;;;;;1054.57;973.97;;;24.20;99.90;;;;;;5108729;28;20809;-89
2022/08/03 00:33:36;;;;;;;1059.67;979.30;;;24.20;99.90;;;;;;5105722;28;20459;-90
2022/08/03 00:36:03;;;;;;;1064.53;983.90;;;24.20;99.90;;;;;;5097272;28;20447;-89
2022/08/03 00:38:30;;;;;;;1054.00;973.97;;;24.20;99.90;;;;;;5102857;28;20460;-88
2022/08/03 00:40:57;;;;;;;1047.57;967.17;;;24.20;99.90;;;;;;5102023;28;20470;-89
2022/08/03 00:43:25;;;;;;;1055.80;975.30;;;24.20;99.90;;;;;;5107488;28;20466;-88
2022/08/03 00:45:53;;;;;;;1065.87;984.93;;;24.20;99.90;;;;;;5106023;28;20551;-89
2022/08/03 00:48:20;;;;;;;1050.63;970.63;;;24.10;99.90;;;;;;5103189;28;20467;-88
2022/08/03 00:50:48;;;;;;;1043.97;963.87;;;24.10;99.90;;;;;;5104792;28;20448;-89
2022/08/03 00:53:15;;;;;;;1051.50;971.63;;;24.10;99.90;;;;;;5103969;28;20451;-89
2022/08/03 00:55:43;;;;;;;1052.47;972.17;;;24.10;99.90;;;;;;5097874;28;20451;-90
2022/08/03 00:58:11;;;;;;;1042.30;962.43;;;24.10;99.90;;;;;;5094449;28;20471;-87
2022/08/03 01:00:39;;;;;;;1048.43;968.23;;;24.00;99.90;;;;;;5107273;28;20492;-87
2022/08/03 01:03:07;;;;;;;1054.27;973.87;;;24.00;99.90;;;;;;5098425;28;20763;-87
2022/08/03 01:05:42;;;;;;;1054.17;973.80;;;24.00;99.90;;;;;;5108370;28;20451;-87
2022/08/03 01:08:16;;;;;;;1043.97;964.03;;;24.00;99.90;;;;;;5099426;28;20458;-87
2022/08/03 01:10:53;;;;;;;1041.50;961.30;;;24.00;99.90;;;;;;5103597;28;20825;-87
2022/08/03 01:13:24;;;;;;;1061.93;980.97;;;24.00;99.90;;;;;;5106139;28;20961;-86
2022/08/03 01:16:00;;;;;;;1057.07;976.77;;;23.90;99.90;;;;;;5095004;28;20962;-87
2022/08/03 01:18:35;;;;;;;1036.10;956.63;;;23.90;99.90;;;;;;5101133;28;20949;-87
2022/08/03 01:21:10;;;;;;;1035.27;955.30;;;23.90;99.90;;;;;;5095310;28;20461;-87
2022/08/03 01:24:02;;;;;;;1031.50;951.33;;;23.90;99.90;;;;;;5099644;28;20451;-86
2022/08/03 01:26:48;;;;;;;1034.23;953.83;;;23.90;99.90;;;;;;5107006;28;20482;-86
2022/08/03 01:29:40;;;;;;;1030.50;950.83;;;23.90;99.90;;;;;;5100440;28;20456;-86
2022/08/03 01:32:12;;;;;;;1037.90;957.73;;;23.90;99.90;;;;;;5101712;28;21781;-87
2022/08/03 01:34:43;;;;;;;1043.57;963.10;;;23.80;99.90;;;;;;5097537;28;20917;-88
2022/08/03 01:37:12;;;;;;;1048.40;967.47;;;23.80;99.90;;;;;;5109759;28;20491;-88
2022/08/03 01:39:41;;;;;;;1046.30;965.73;;;23.80;99.90;;;;;;5105178;28;20464;-87
2022/08/03 01:42:10;;;;;;;1038.03;957.63;;;23.80;99.90;;;;;;5107010;28;20526;-88
2022/08/03 01:44:41;;;;;;;1043.37;963.10;;;23.80;99.90;;;;;;5108490;28;20451;-88
2022/08/03 01:47:10;;;;;;;1040.57;960.00;;;23.80;99.90;;;;;;5107921;28;20837;-88
2022/08/03 01:49:40;;;;;;;1026.73;946.57;;;23.70;99.90;;;;;;5112080;28;20454;-88
2022/08/03 01:52:08;;;;;;;1030.53;950.63;;;23.70;99.90;;;;;;5100919;28;20458;-86
2022/08/03 01:54:37;;;;;;;1045.10;964.63;;;23.70;99.90;;;;;;5102737;28;20458;-89
2022/08/03 01:57:04;;;;;;;1040.73;960.37;;;23.70;99.90;;;;;;5092920;28;20447;-87
2022/08/03 01:59:34;;;;;;;1039.10;958.70;;;23.70;99.90;;;;;;5099563;28;20459;-85
2022/08/03 02:02:03;;;;;;;1034.47;954.27;;;23.70;99.90;;;;;;5094915;28;20471;-85
2022/08/03 02:04:31;;;;;;;1033.83;953.63;;;23.70;99.90;;;;;;5104330;28;20450;-86
2022/08/03 02:06:59;;;;;;;1032.23;952.33;;;23.60;99.90;;;;;;5097841;28;20470;-85
2022/08/03 02:09:27;;;;;;;1031.60;951.73;;;23.60;99.90;;;;;;5101640;28;20455;-86
2022/08/03 02:11:56;;;;;;;1019.83;940.53;;;23.60;99.90;;;;;;5104254;28;20459;-86
2022/08/03 02:14:23;;;;;;;1030.67;950.60;;;23.60;99.90;;;;;;5110387;28;20685;-86
2022/08/03 02:16:51;;;;;;;1043.83;963.17;;;23.50;99.90;;;;;;5100427;28;20456;-85
2022/08/03 02:19:19;;;;;;;1031.47;951.07;;;23.50;99.90;;;;;;5092728;28;20471;-89
2022/08/03 02:21:47;;;;;;;1029.43;949.33;;;23.50;99.90;;;;;;5105320;28;20949;-87
2022/08/03 02:24:14;;;;;;;1020.70;941.27;;;23.50;99.90;;;;;;5106702;28;20465;-87
2022/08/03 02:26:42;;;;;;;1034.93;954.93;;;23.50;99.90;;;;;;5102154;28;20486;-86
2022/08/03 02:29:13;;;;;;;1024.00;944.03;;;23.50;99.90;;;;;;5100251;28;20950;-90
2022/08/03 02:31:41;;;;;;;1042.30;961.58;;;23.50;99.90;;;;;;5094909;28;20477;-86
2022/08/03 02:34:13;;;;;;;1030.13;949.73;;;23.50;99.90;;;;;;5092826;28;21742;-84
2022/08/03 02:36:44;;;;;;;1009.50;931.83;;;23.40;99.90;;;;;;5098102;28;20467;-85
2022/08/03 02:39:13;;;;;;;1023.97;948.07;;;23.40;99.90;;;;;;5100046;28;20446;-85
2022/08/03 02:41:45;;;;;;;1017.20;942.37;;;23.40;99.90;;;;;;5099117;28;20459;-84
2022/08/03 02:44:13;;;;;;;1004.17;930.57;;;23.40;99.90;;;;;;5105829;28;20469;-84
2022/08/03 02:46:44;;;;;;;1014.10;940.67;;;23.40;99.90;;;;;;5107199;28;20482;-84
2022/08/03 02:49:13;;;;;;;1027.63;953.60;;;23.40;99.90;;;;;;5106018;28;20810;-84
2022/08/03 02:51:42;;;;;;;1007.57;934.90;;;23.30;99.90;;;;;;5099929;28;20459;-86
2022/08/03 02:54:09;;;;;;;1035.50;961.80;;;23.30;99.90;;;;;;5105750;28;21445;-84
2022/08/03 02:56:39;;;;;;;1011.07;937.77;;;23.30;99.90;;;;;;5105947;28;20454;-84
2022/08/03 02:59:06;;;;;;;1010.90;938.53;;;23.30;99.90;;;;;;5096262;28;20495;-83
2022/08/03 03:01:34;;;;;;;1002.50;930.50;;;23.30;99.90;;;;;;5094146;28;20859;-83
2022/08/03 03:04:01;;;;;;;1011.70;939.07;;;23.30;99.90;;;;;;5098972;28;20458;-84
2022/08/03 03:06:28;;;;;;;1005.10;932.83;;;23.30;99.90;;;;;;5099680;28;20487;-86
2022/08/03 03:08:57;;;;;;;1023.67;951.07;;;23.20;99.90;;;;;;5102639;28;20459;-85
2022/08/03 03:11:25;;;;;;;1012.73;940.27;;;23.20;99.90;;;;;;5102250;28;20466;-84
2022/08/03 03:13:53;;;;;;;1011.83;939.17;;;23.20;99.90;;;;;;5097455;28;20455;-85
2022/08/03 03:16:21;;;;;;;1014.37;941.30;;;23.20;99.90;;;;;;5099042;28;20474;-84
2022/08/03 03:18:49;;;;;;;1021.50;948.13;;;23.20;99.90;;;;;;5099004;28;20463;-84
2022/08/03 03:21:19;;;;;;;999.83;928.13;;;23.20;99.90;;;;;;5101575;28;20451;-84
2022/08/03 03:23:46;;;;;;;1013.23;940.47;;;23.20;99.90;;;;;;5100993;28;20450;-85
2022/08/03 03:26:16;;;;;;;1018.00;945.47;;;23.10;99.90;;;;;;5099945;28;20459;-84
2022/08/03 03:28:43;;;;;;;992.87;921.43;;;23.10;99.90;;;;;;5099935;28;20452;-84
2022/08/03 03:31:11;;;;;;;1006.57;934.57;;;23.10;99.90;;;;;;5096179;28;20537;-85
2022/08/03 03:33:38;;;;;;;992.97;921.27;;;23.10;99.90;;;;;;5100225;28;20470;-87
2022/08/03 03:36:06;;;;;;;1000.57;928.13;;;23.10;99.90;;;;;;5105838;28;20454;-87
2022/08/03 03:38:34;;;;;;;996.13;923.90;;;23.10;99.90;;;;;;5098188;28;20459;-87
2022/08/03 03:41:01;;;;;;;1016.57;943.67;;;23.10;99.90;;;;;;5101508;28;20446;-87
2022/08/03 03:43:29;;;;;;;1012.27;939.60;;;23.00;99.90;;;;;;5111719;28;20458;-88
2022/08/03 03:45:57;;;;;;;1015.80;942.23;;;23.00;99.90;;;;;;5112794;28;20436;-88
2022/08/03 03:48:25;;;;;;;1007.13;933.87;;;23.00;99.90;;;;;;5111017;28;20474;-88
2022/08/03 03:50:52;;;;;;;996.97;924.27;;;23.00;99.90;;;;;;5110001;28;20451;-88
2022/08/03 03:53:19;;;;;;;996.03;923.25;;;23.00;99.90;;;;;;5103346;28;20470;-88
2022/08/03 03:55:46;;;;;;;1009.63;936.33;;;23.00;99.90;;;;;;5102801;28;20208;-87
2022/08/03 03:58:13;;;;;;;995.00;921.83;;;23.00;99.90;;;;;;5101231;28;21008;-89
2022/08/03 04:00:44;;;;;;;1002.17;928.77;;;22.90;99.90;;;;;;5098138;28;20466;-88
2022/08/03 04:03:11;;;;;;;1003.53;929.90;;;22.90;99.90;;;;;;5099527;28;20559;-89
2022/08/03 04:11:14;;;;;;;1006.00;932.58;;;22.90;99.90;;;;;;5095478;28;20687;-88
2022/08/03 04:13:47;;;;;;;1012.28;938.95;;;22.90;99.90;;;;;;5105131;28;20202;-89
2022/08/03 04:16:17;;;;;;;1007.00;933.47;;;22.90;99.90;;;;;;5103424;28;20200;-88
2022/08/03 04:18:50;;;;;;;1000.67;927.60;;;22.90;99.90;;;;;;5105447;27;20197;-89
2022/08/03 04:21:22;;;;;;;1003.00;929.60;;;22.80;99.90;;;;;;5112778;28;20469;-89
2022/08/03 04:23:52;;;;;;;996.58;923.97;;;22.80;99.90;;;;;;5104327;28;20189;-88
2022/08/03 04:26:22;;;;;;;998.33;925.47;;;22.80;99.90;;;;;;5096980;28;20197;-88
2022/08/03 04:28:51;;;;;;;991.58;918.92;;;22.80;99.90;;;;;;5112880;28;20201;-88
2022/08/03 04:31:22;;;;;;;1003.30;930.27;;;22.80;99.90;;;;;;5102506;28;20545;-88
2022/08/03 04:33:50;;;;;;;1007.10;933.97;;;22.80;99.90;;;;;;5106372;28;20470;-88
2022/08/03 04:36:20;;;;;;;993.28;920.50;;;22.80;99.90;;;;;;5109961;28;20197;-88
2022/08/03 04:38:55;;;;;;;995.97;922.67;;;22.80;99.90;;;;;;5107029;28;20189;-88
2022/08/03 04:41:25;;;;;;;999.88;925.75;;;22.70;99.90;;;;;;5106683;28;20219;-89
2022/08/03 04:43:54;;;;;;;998.38;923.78;;;22.70;99.90;;;;;;5105719;28;20217;-88
2022/08/03 04:46:26;;;;;;;998.95;924.83;;;22.70;99.90;;;;;;5102789;28;20200;-89
2022/08/03 04:48:54;;;;;;;1015.67;941.00;;;22.70;99.90;;;;;;5109076;28;20200;-89
2022/08/03 04:51:21;;;;;;;988.58;914.45;;;22.70;99.90;;;;;;5108455;28;20821;-89
2022/08/03 04:53:48;;;;;;;1008.70;933.72;;;22.70;99.90;;;;;;5104292;28;20204;-88
2022/08/03 04:56:15;;;;;;;1007.40;931.70;;;22.70;99.90;;;;;;5103751;28;20189;-88
2022/08/03 04:58:42;;;;;;;1005.92;930.00;;;22.70;99.90;;;;;;5104685;28;20216;-88
2022/08/03 05:01:08;;;;;;;1006.72;931.47;;;22.70;99.90;;;;;;5095830;28;20193;-87
2022/08/03 05:03:37;;;;;;;1003.20;927.22;;;22.60;99.90;;;;;;5105891;28;20662;-87
2022/08/03 05:06:04;;;;;;;991.40;916.47;;;22.60;99.90;;;;;;5112175;28;20189;-87
2022/08/03 05:08:30;;;;;;;1005.05;929.53;;;22.60;99.90;;;;;;5100815;28;20219;-87
2022/08/03 05:10:58;;;;;;;991.97;915.80;;;22.60;99.90;;;;;;5101626;28;20601;-86
2022/08/03 05:13:24;;;;;;;1005.60;929.40;;;22.60;99.90;;;;;;5106890;28;20266;-88
2022/08/03 05:15:51;;;;;;;1010.80;933.63;;;22.60;99.90;;;;;;5104509;28;20644;-87
2022/08/03 05:18:18;;;;;;;1006.35;928.92;;;22.60;99.90;;;;;;5108234;28;20200;-88
2022/08/03 05:20:46;;;;;;;1003.80;926.28;;;22.60;99.90;;;;;;5109295;28;20211;-86
2022/08/03 05:23:13;;;;;;;1010.00;931.63;;;22.60;99.90;;;;;;5101911;28;20564;-89
2022/08/03 05:25:39;;;;;;;1008.90;929.42;;;22.60;99.90;;;;;;5105865;28;20198;-89
2022/08/03 05:28:06;;;;;;;994.28;914.38;;;22.60;99.90;;;;;;5099897;28;20300;-87
2022/08/03 05:30:33;;;;;;;1014.03;935.40;;;22.60;99.90;;;;;;5091812;28;20193;-88
2022/08/03 05:32:59;;;;;;;1024.22;942.38;;;22.60;99.90;;;;;;5094189;28;20192;-89
2022/08/03 05:35:27;;;;;;;1009.20;928.35;;;22.60;99.90;;;;;;5095238;28;20220;-88
2022/08/03 05:37:55;;;;;;;1003.80;922.15;;;22.60;99.90;;;;;;5109409;28;20236;-88
2022/08/03 05:40:22;;;;;;;1025.28;942.25;;;22.60;99.90;;;;;;5099254;28;20189;-88
2022/08/03 05:42:49;;;;;;;1013.67;928.53;;;22.60;99.90;;;;;;5107372;28;20216;-87
2022/08/03 05:45:17;;;;;;;1005.90;923.60;;;22.70;99.90;;;;;;5099079;28;20197;-88
2022/08/03 05:47:44;;;;;;;997.20;917.40;;;23.00;99.90;;;;;;5108638;28;20639;-88
2022/08/03 05:50:11;;;;;;;1021.67;941.22;;;23.20;99.90;;;;;;5101352;28;20205;-89
2022/08/03 05:52:38;;;;;;;1042.40;959.90;;;23.50;99.90;;;;;;5108028;28;20197;-88
2022/08/03 05:55:08;;;;;;;1037.70;955.40;;;23.70;99.90;;;;;;5101834;28;20445;-86
2022/08/03 05:57:35;;;;;;;1043.30;958.40;;;24.00;99.90;;;;;;5108671;28;20442;-86
2022/08/03 06:00:04;;;;;;;1045.50;961.70;;;24.20;99.90;;;;;;5100193;28;20486;-86
2022/08/03 06:02:31;;;;;;;1057.73;972.93;;;24.50;99.90;;;;;;5097154;28;20486;-86
2022/08/03 06:04:58;;;;;;;1069.87;982.90;;;24.60;99.90;;;;;;5100799;28;20458;-81
2022/08/03 06:07:24;;;;;;;1080.97;991.23;;;24.80;99.90;;;;;;5105920;28;20553;-87
2022/08/03 06:09:51;;;;;;;1083.50;993.37;;;25.00;99.90;;;;;;5103928;28;20815;-87
2022/08/03 06:12:20;;;;;;;1073.80;983.40;;;25.20;99.90;;;;;;5103606;28;20442;-88
2022/08/03 06:14:46;;;;;;;1085.63;996.13;;;25.30;99.90;;;;;;5097277;27;20815;-85
2022/08/03 06:17:13;;;;;;;1094.93;999.90;;;25.50;99.90;;;;;;5100957;28;20494;-84
2022/08/03 06:19:40;;;;;;;1101.63;999.90;;;25.60;99.90;;;;;;5097832;28;20462;-83
2022/08/03 06:22:06;;;;;;;1105.70;999.90;;;25.70;99.90;;;;;;5108162;28;20803;-85
2022/08/03 06:24:33;;;;;;;1100.60;999.90;;;25.80;99.90;;;;;;5104093;28;20454;-84
2022/08/03 06:27:00;;;;;;;1094.90;999.90;;;25.90;99.90;;;;;;5102183;28;20461;-85
2022/08/03 06:29:28;;;;;;;1103.93;999.90;;;26.00;99.90;;;;;;5101713;28;20511;-85
2022/08/03 06:31:55;;;;;;;1114.60;999.90;;;26.10;99.90;;;;;;5096327;28;20467;-85
2022/08/03 06:34:21;;;;;;;1116.40;999.90;;;26.20;99.90;;;;;;5095379;28;20463;-84
2022/08/03 06:36:49;;;;;;;1126.63;999.90;;;26.30;99.90;;;;;;5110773;28;20941;-83
2022/08/03 06:39:17;;;;;;;1110.83;999.90;;;26.30;99.90;;;;;;5093743;28;20795;-84
2022/08/03 06:41:44;;;;;;;1114.27;999.90;;;26.30;99.90;;;;;;5103719;28;20530;-85
2022/08/03 06:44:10;;;;;;;1117.87;999.90;;;26.30;99.90;;;;;;5101124;28;20976;-84
2022/08/03 06:46:38;;;;;;;1131.60;999.90;;;26.40;99.90;;;;;;5095319;28;20821;-86
2022/08/03 06:49:06;;;;;;;1134.37;999.90;;;26.50;99.90;;;;;;5091016;28;20483;-85
2022/08/03 06:51:33;;;;;;;1150.07;999.90;;;26.60;99.90;;;;;;5092113;28;20443;-84
2022/08/03 06:53:59;;;;;;;1131.77;999.90;;;26.70;99.90;;;;;;5104342;28;21174;-85
2022/08/03 06:56:26;;;;;;;1134.93;999.90;;;26.80;99.90;;;;;;5107489;28;22984;-86
2022/08/03 06:58:53;;;;;;;1139.30;999.90;;;26.90;99.90;;;;;;5100609;28;20461;-85
2022/08/03 07:01:20;;;;;;;1149.03;999.90;;;27.00;99.90;;;;;;5101903;28;20479;-87
2022/08/03 07:03:48;;;;;;;1131.87;999.90;;;27.10;99.90;;;;;;5106610;28;20938;-85
2022/08/03 07:06:14;;;;;;;1138.07;999.90;;;27.10;99.90;;;;;;5105514;28;20481;-84
2022/08/03 07:08:41;;;;;;;1137.63;999.90;;;27.10;99.90;;;;;;5109997;28;20485;-85
2022/08/03 07:11:08;;;;;;;1145.67;999.90;;;27.20;99.90;;;;;;5098404;28;20818;-82
2022/08/03 07:13:34;;;;;;;1151.87;999.90;;;27.30;99.90;;;;;;5096455;28;20470;-83
2022/08/03 07:16:01;;;;;;;1152.10;999.90;;;27.40;99.70;;;;;;5110167;28;20455;-85
2022/08/03 07:18:28;;;;;;;1150.73;999.90;;;27.40;99.40;;;;;;5101872;28;20455;-82
2022/08/03 07:20:56;;;;;;;1157.37;999.90;;;27.50;99.20;;;;;;5098311;28;20455;-85
2022/08/03 07:23:23;;;;;;;1164.53;999.90;;;27.60;98.90;;;;;;5094975;28;21637;-83
2022/08/03 07:25:50;;;;;;;1154.37;999.90;;;27.70;98.70;;;;;;5102685;28;20447;-84
2022/08/03 07:28:17;;;;;;;1165.67;999.90;;;27.80;98.50;;;;;;5099184;27;20544;-85
2022/08/03 07:30:43;;;;;;;1158.53;999.90;;;27.80;98.40;;;;;;5098952;27;20463;-85
2022/08/03 07:33:10;;;;;;;1164.43;999.90;;;27.90;98.20;;;;;;5094810;28;20473;-83
2022/08/03 07:35:37;;;;;;;1175.17;999.90;;;28.00;97.90;;;;;;5094641;28;20817;-83
2022/08/03 07:38:05;;;;;;;1172.17;999.90;;;28.00;97.70;;;;;;5095439;28;20455;-83
2022/08/03 07:40:32;;;;;;;1171.17;999.90;;;28.10;97.60;;;;;;5093594;28;20454;-83
2022/08/03 07:42:58;;;;;;;1171.00;999.90;;;28.00;97.50;;;;;;5095435;28;20455;-85
2022/08/03 07:45:25;;;;;;;1163.37;999.90;;;28.00;97.60;;;;;;5096847;28;20454;-82
2022/08/03 07:47:52;;;;;;;1165.17;999.90;;;28.00;97.70;;;;;;5092147;28;20834;-84
2022/08/03 07:50:19;;;;;;;1171.57;999.90;;;28.00;97.70;;;;;;5098600;27;20501;-81
2022/08/03 07:52:48;;;;;;;1160.93;999.90;;;28.00;97.60;;;;;;5099732;28;20453;-82
2022/08/03 07:55:17;;;;;;;1172.90;999.90;;;28.00;97.50;;;;;;5106905;28;20456;-83
2022/08/03 07:57:44;;;;;;;1161.30;999.90;;;28.00;97.60;;;;;;5100629;28;20457;-84
2022/08/03 08:00:15;;;;;;;1176.07;999.90;;;28.10;97.50;;;;;;5098435;28;20564;-86
2022/08/03 08:02:42;;;;;;;1166.47;999.90;;;28.10;97.50;;;;;;5103123;28;20467;-84
2022/08/03 08:05:09;;;;;;;1176.60;999.90;;;28.10;97.40;;;;;;5105149;28;20459;-82
2022/08/03 08:07:36;;;;;;;1173.40;999.90;;;28.10;97.30;;;;;;5107363;28;20494;-83
2022/08/03 08:10:04;;;;;;;1163.23;999.90;;;28.10;97.40;;;;;;5106039;28;20474;-83
2022/08/03 08:12:32;;;;;;;1159.23;999.90;;;28.00;97.40;;;;;;5103435;27;20460;-90
2022/08/03 08:14:59;;;;;;;1177.30;999.90;;;28.10;97.50;;;;;;5112096;28;20447;-86
2022/08/03 08:17:27;;;;;;;1165.90;999.90;;;28.10;97.50;;;;;;5098018;28;20463;-89
2022/08/03 08:19:54;;;;;;;1167.73;999.90;;;28.10;97.50;;;;;;5097939;27;20454;-88
2022/08/03 08:22:21;;;;;;;1181.57;999.90;;;28.10;97.30;;;;;;5098799;28;20439;-89
2022/08/03 08:24:48;;;;;;;1178.10;999.90;;;28.20;97.20;;;;;;5095278;27;20451;-86
2022/08/03 08:27:14;;;;;;;1186.20;999.90;;;28.30;97.20;;;;;;5096485;28;20447;-86
2022/08/03 08:29:42;;;;;;;1194.40;999.90;;;28.30;97.00;;;;;;5095855;27;20483;-86
2022/08/03 08:32:10;;;;;;;1196.53;999.90;;;28.50;96.80;;;;;;5092551;28;20464;-85
2022/08/03 08:34:36;;;;;;;1188.07;999.90;;;28.60;96.60;;;;;;5102472;27;20455;-83
2022/08/03 08:37:04;;;;;;;1195.40;999.90;;;28.70;96.40;;;;;;5099920;27;20465;-86
2022/08/03 08:39:31;;;;;;;1196.63;999.90;;;28.80;96.00;;;;;;5106872;28;20961;-83
2022/08/03 08:41:58;;;;;;;1208.47;999.90;;;28.80;95.80;;;;;;5111017;28;20455;-79
2022/08/03 08:44:24;;;;;;;1203.03;999.90;;;28.90;95.70;;;;;;5111367;28;20455;-79
2022/08/03 08:46:54;;;;;;;1198.90;999.90;;;29.00;95.50;;;;;;5103135;28;20455;-78
2022/08/03 08:49:26;;;;;;;1199.50;999.90;;;29.00;95.30;;;;;;5100079;28;20502;-79
2022/08/03 08:51:56;;;;;;;1211.33;999.90;;;29.10;95.10;;;;;;5107927;28;20512;-79
2022/08/03 08:54:23;;;;;;;1209.83;999.90;;;29.10;94.90;;;;;;5109127;28;20500;-80
2022/08/03 08:56:52;;;;;;;1212.47;999.90;;;29.20;94.90;;;;;;5096464;28;20463;-80
2022/08/03 08:59:19;;;;;;;1219.57;999.90;;;29.20;94.80;;;;;;5110015;28;20951;-78
2022/08/03 09:01:46;;;;;;;1202.20;999.90;;;29.20;94.70;;;;;;5103752;28;20478;-80
2022/08/03 09:04:14;;;;;;;1212.37;999.90;;;29.20;94.80;;;;;;5103784;28;20835;-80
2022/08/03 09:06:41;;;;;;;1209.40;999.90;;;29.20;94.70;;;;;;5097056;28;21212;-78
2022/08/03 09:09:08;;;;;;;1218.63;999.90;;;29.20;94.70;;;;;;5098707;28;20479;-80
2022/08/03 09:11:34;;;;;;;1208.83;999.90;;;29.20;94.60;;;;;;5103531;28;20459;-79
2022/08/03 09:14:01;;;;;;;1213.27;999.90;;;29.20;94.50;;;;;;5106358;27;20462;-79
2022/08/03 09:16:28;;;;;;;1203.73;999.90;;;29.20;94.60;;;;;;5102328;27;20818;-80
2022/08/03 09:18:54;;;;;;;1210.87;999.90;;;29.20;94.50;;;;;;5097804;28;20490;-77
2022/08/03 09:21:25;;;;;;;1220.07;999.90;;;29.20;94.60;;;;;;5105330;28;20473;-80
2022/08/03 09:23:53;;;;;;;1202.10;999.90;;;29.20;94.60;;;;;;5103376;28;20462;-80
2022/08/03 09:26:22;;;;;;;1220.47;999.90;;;29.20;94.50;;;;;;5102262;28;20941;-79
2022/08/03 09:28:55;;;;;;;1204.57;999.90;;;29.20;94.40;;;;;;5103027;28;20831;-81
2022/08/03 09:31:33;;;;;;;1208.47;999.90;;;29.20;94.50;;;;;;5098905;28;20511;-81
2022/08/03 09:34:02;;;;;;;1214.97;999.90;;;29.20;94.50;;;;;;5099650;28;20941;-81
2022/08/03 09:36:41;;;;;;;1211.53;999.90;;;29.20;94.40;;;;;;5104947;28;20450;-78
2022/08/03 09:39:10;;;;;;;1216.60;999.90;;;29.20;94.40;;;;;;5105093;28;20451;-80
2022/08/03 09:41:38;;;;;;;1212.60;999.90;;;29.10;94.40;;;;;;5108801;28;20461;-79
2022/08/03 09:44:05;;;;;;;1211.90;999.90;;;29.10;94.40;;;;;;5103343;28;20450;-79
2022/08/03 09:46:46;;;;;;;1211.03;999.90;;;29.10;94.40;;;;;;5091799;28;20803;-81
2022/08/03 09:49:13;;;;;;;1208.47;999.90;;;29.00;94.60;;;;;;5105873;28;21015;-80
2022/08/03 09:51:42;;;;;;;1208.63;999.90;;;29.00;94.50;;;;;;5098864;28;20455;-80
2022/08/03 09:54:09;;;;;;;1200.03;999.90;;;29.00;94.50;;;;;;5104390;28;20466;-79
2022/08/03 09:56:44;;;;;;;1207.03;999.90;;;29.00;94.50;;;;;;5102485;28;20461;-79
2022/08/03 09:59:11;;;;;;;1206.43;999.90;;;29.00;94.30;;;;;;5112385;28;20442;-81
2022/08/03 10:01:41;;;;;;;1201.13;999.90;;;29.00;94.40;;;;;;5099390;28;20489;-81
2022/08/03 10:04:13;;;;;;;1205.83;999.90;;;29.00;94.50;;;;;;5102455;28;20463;-79
2022/08/03 10:06:43;;;;;;;1204.57;999.90;;;28.90;94.40;;;;;;5104427;28;20516;-85
2022/08/03 10:09:12;;;;;;;1195.13;999.90;;;28.90;94.40;;;;;;5097138;28;20486;-78
2022/08/03 10:11:40;;;;;;;1201.27;999.90;;;28.90;94.50;;;;;;5107453;28;20526;-81
2022/08/03 10:14:08;;;;;;;1205.10;999.90;;;28.90;94.70;;;;;;5106762;28;20458;-79
2022/08/03 10:16:37;;;;;;;1208.00;999.90;;;28.90;94.70;;;;;;5100614;28;20467;-79
2022/08/03 10:19:05;;;;;;;1201.50;999.90;;;28.90;94.70;;;;;;5096547;28;20455;-79
2022/08/03 10:21:35;;;;;;;1205.77;999.90;;;28.90;94.60;;;;;;5096034;28;20818;-82
2022/08/03 10:24:06;;;;;;;1193.97;999.90;;;28.90;94.70;;;;;;5102485;28;20814;-80
2022/08/03 10:26:35;;;;;;;1195.90;999.90;;;28.80;94.70;;;;;;5100431;27;20473;-82
2022/08/03 10:29:06;;;;;;;1188.57;999.90;;;28.90;94.80;;;;;;5110514;28;20486;-80
2022/08/03 10:31:39;;;;;;;1182.20;999.90;;;28.80;94.80;;;;;;5095303;28;20494;-80
2022/08/03 10:34:11;;;;;;;1194.40;999.90;;;28.80;94.80;;;;;;5096552;28;20459;-81
2022/08/03 10:36:41;;;;;;;1194.43;999.90;;;28.80;94.70;;;;;;5108452;28;20925;-80
2022/08/03 10:39:10;;;;;;;1199.73;999.90;;;28.80;94.70;;;;;;5108945;28;20439;-80
2022/08/03 10:41:43;;;;;;;1190.90;999.90;;;28.80;94.70;;;;;;5101414;28;20788;-80
2022/08/03 10:44:17;;;;;;;1199.73;999.90;;;28.80;94.60;;;;;;5106027;28;20528;-80
2022/08/03 10:46:45;;;;;;;1189.73;999.90;;;28.80;94.70;;;;;;5108088;28;20450;-79
2022/08/03 10:49:14;;;;;;;1196.77;999.90;;;28.80;94.70;;;;;;5095577;28;21009;-80
2022/08/03 10:51:41;;;;;;;1191.93;999.90;;;28.80;94.50;;;;;;5105307;28;20510;-80
2022/08/03 10:57:33;;;;;;;1202.30;999.90;;;28.80;94.60;;;;;;5109384;28;20470;-81
2022/08/03 10:57:51;;;;;;;1196.90;999.90;;;28.80;94.60;;;;;;5098982;28;20480;-82
2022/08/03 11:00:19;;;;;;;1185.10;999.90;;;28.80;94.60;;;;;;5110283;28;20438;-82
2022/08/03 11:03:03;;;;;;;1179.13;999.90;;;28.80;94.40;;;;;;5101564;28;20472;-81
2022/08/03 11:05:31;;;;;;;1193.47;999.90;;;28.80;94.60;;;;;;5096911;28;20456;-80
2022/08/03 11:08:20;;;;;;;1197.43;999.90;;;28.80;94.50;;;;;;5105464;28;20474;-78
2022/08/03 11:10:48;;;;;;;1190.77;999.90;;;28.70;94.50;;;;;;5108794;28;20972;-79
2022/08/03 11:13:17;;;;;;;1184.90;999.90;;;28.70;94.40;;;;;;5094730;28;20454;-80
2022/08/03 11:15:46;;;;;;;1192.63;999.90;;;28.70;94.50;;;;;;5098617;28;20536;-79
2022/08/03 11:18:14;;;;;;;1196.23;999.90;;;28.80;94.50;;;;;;5098906;28;20466;-80
2022/08/03 11:20:48;;;;;;;1185.33;999.90;;;28.80;94.50;;;;;;5102544;28;21030;-79
2022/08/03 11:23:16;;;;;;;1185.07;999.90;;;28.80;94.30;;;;;;5096571;28;20778;-78
2022/08/03 11:26:20;;;;;;;1185.13;999.90;;;28.70;94.10;;;;;;5102780;28;20468;-79
2022/08/03 11:28:47;;;;;;;1189.43;999.90;;;28.70;94.30;;;;;;5110068;28;20438;-79
2022/08/03 11:31:46;;;;;;;1188.13;999.90;;;28.70;94.30;;;;;;5105905;28;20829;-79
2022/08/03 11:34:15;;;;;;;1190.33;999.90;;;28.70;94.20;;;;;;5097447;28;20953;-81
2022/08/03 11:37:22;;;;;;;1180.63;999.90;;;28.70;94.30;;;;;;5096758;28;20459;-78
2022/08/03 11:39:53;;;;;;;1182.17;999.90;;;28.70;94.40;;;;;;5104037;28;20438;-81
2022/08/03 11:42:49;;;;;;;1181.70;999.90;;;28.70;94.40;;;;;;5106341;28;20466;-83
2022/08/03 11:45:18;;;;;;;1181.87;999.90;;;28.70;94.40;;;;;;5096878;28;20478;-81
2022/08/03 11:47:45;;;;;;;1196.03;999.90;;;28.70;94.40;;;;;;5108210;28;21073;-87
2022/08/03 11:50:12;;;;;;;1186.10;999.90;;;28.70;94.40;;;;;;5106675;28;20504;-86
2022/08/03 11:52:41;;;;;;;1192.33;999.90;;;28.70;94.40;;;;;;5104786;28;20469;-85
2022/08/03 11:55:19;;;;;;;1185.97;999.90;;;28.70;94.40;;;;;;5103624;28;20507;-85
2022/08/03 11:57:48;;;;;;;1177.83;999.90;;;28.70;94.30;;;;;;5095604;28;20453;-84
2022/08/03 12:00:26;;;;;;;1199.57;999.90;;;28.70;94.30;;;;;;5104561;28;20546;-86
2022/08/03 12:02:58;;;;;;;1189.57;999.90;;;28.70;94.30;;;;;;5111040;28;20469;-88
2022/08/03 12:05:39;;;;;;;1197.77;999.90;;;28.70;94.40;;;;;;5105324;28;20455;-83
2022/08/03 12:08:07;;;;;;;1198.67;999.90;;;28.70;94.30;;;;;;5099541;28;20961;-82
2022/08/03 12:10:34;;;;;;;1188.53;999.90;;;28.70;94.30;;;;;;5114619;28;20497;-86
2022/08/03 12:13:07;;;;;;;1185.20;999.90;;;28.70;94.30;;;;;;5097941;28;21067;-81
2022/08/03 12:15:35;;;;;;;1181.60;999.90;;;28.70;94.20;;;;;;5106758;28;20817;-83